createdAt,value
2023-05-16T00:02:44.510Z,1.30
2023-05-16T00:07:48.034Z,1.15
2023-05-16T00:12:52.050Z,1.35
2023-05-16T00:17:58.836Z,1.20
2023-05-16T00:23:02.030Z,1.40
2023-05-16T00:28:05.039Z,1.42
2023-05-16T00:33:08.162Z,1.20
2023-05-16T00:38:11.380Z,2.03
2023-05-16T00:43:14.456Z,1.75
2023-05-16T00:48:17.794Z,1.83
2023-05-16T00:53:22.046Z,1.73
2023-05-16T00:58:25.237Z,1.40
2023-05-16T01:03:28.572Z,1.35
2023-05-16T01:08:31.593Z,1.30
2023-05-16T01:13:48.926Z,1.70
2023-05-16T01:19:32.569Z,1.42
2023-05-16T01:24:52.525Z,1.52
2023-05-16T01:29:58.799Z,1.88
2023-05-16T01:35:01.900Z,1.65
2023-05-16T01:40:13.167Z,2.10
2023-05-16T01:45:29.717Z,1.98
2023-05-16T01:50:37.166Z,1.33
2023-05-16T01:55:47.751Z,1.58
2023-05-16T02:00:50.974Z,1.40
2023-05-16T02:05:54.084Z,1.63
2023-05-16T02:10:57.120Z,1.92
2023-05-16T02:16:00.878Z,1.70
2023-05-16T02:21:04.179Z,1.80
2023-05-16T02:26:07.303Z,1.65
2023-05-16T02:31:10.424Z,2.15
2023-05-16T02:36:13.403Z,1.98
2023-05-16T02:41:19.186Z,1.88
2023-05-16T02:46:26.305Z,1.75
2023-05-16T02:51:29.374Z,2.38
2023-05-16T02:56:32.405Z,2.17
2023-05-16T03:01:35.450Z,2.30
2023-05-16T03:06:38.442Z,2.20
2023-05-16T03:11:41.475Z,2.00
2023-05-16T03:16:45.051Z,2.70
2023-05-16T03:21:48.750Z,3.53
2023-05-16T03:26:52.446Z,2.80
2023-05-16T03:31:58.014Z,2.90
2023-05-16T03:37:01.137Z,5.18
2023-05-16T03:42:04.602Z,4.53
2023-05-16T03:47:08.251Z,5.53
2023-05-16T03:52:11.173Z,5.53
2023-05-16T03:57:14.317Z,3.50
2023-05-16T04:02:18.919Z,2.78
2023-05-16T04:07:23.848Z,4.75
2023-05-16T04:12:27.099Z,2.45
2023-05-16T04:17:30.242Z,3.08
2023-05-16T04:22:33.370Z,1.95
2023-05-16T04:27:36.424Z,3.00
2023-05-16T04:32:39.431Z,2.90
2023-05-16T04:37:42.799Z,3.25
2023-05-16T04:42:45.909Z,3.47
2023-05-16T04:47:48.880Z,3.58
2023-05-16T04:52:52.033Z,1.52
2023-05-16T04:57:55.888Z,1.20
2023-05-16T05:02:58.984Z,1.50
2023-05-16T05:08:02.329Z,1.33
2023-05-16T05:13:05.359Z,1.00
2023-05-16T05:18:08.579Z,1.30
2023-05-16T05:23:11.724Z,2.25
2023-05-16T05:28:14.762Z,1.15
2023-05-16T05:33:21.294Z,1.20
2023-05-16T05:38:24.414Z,1.20
2023-05-16T05:43:27.870Z,1.10
2023-05-16T05:48:32.865Z,1.02
2023-05-16T05:53:36.117Z,0.95
2023-05-16T05:58:42.240Z,1.15
2023-05-16T06:03:46.308Z,1.27
2023-05-16T06:08:50.469Z,1.10
2023-05-16T06:13:53.476Z,1.33
2023-05-16T06:18:56.594Z,1.08
2023-05-16T06:24:00.053Z,1.15
2023-05-16T06:29:03.109Z,1.10
2023-05-16T06:34:06.342Z,1.20
2023-05-16T06:39:09.479Z,1.50
2023-05-16T06:44:12.542Z,2.00
2023-05-16T06:49:15.786Z,1.02
2023-05-16T06:54:18.873Z,0.88
2023-05-16T06:59:22.011Z,0.70
2023-05-16T07:04:25.040Z,1.15
2023-05-16T07:09:28.199Z,0.90
2023-05-16T07:14:31.323Z,1.20
2023-05-16T07:19:34.430Z,0.98
2023-05-16T07:24:37.589Z,0.80
2023-05-16T07:29:41.945Z,1.27
2023-05-16T07:34:44.972Z,1.00
2023-05-16T07:39:48.149Z,0.90
2023-05-16T07:44:51.330Z,0.90
2023-05-16T07:49:54.487Z,0.95
2023-05-16T07:54:58.702Z,1.30
2023-05-16T08:00:01.919Z,1.85
2023-05-16T08:05:15.405Z,0.93
2023-05-16T08:10:18.827Z,1.17
2023-05-16T08:15:22.991Z,1.85
2023-05-16T08:20:26.706Z,1.10
2023-05-16T08:25:30.015Z,1.20
2023-05-16T08:30:33.309Z,1.10
2023-05-16T08:35:36.470Z,1.08
2023-05-16T08:40:40.928Z,1.48
2023-05-16T08:45:44.248Z,1.17
2023-05-16T08:50:51.670Z,1.05
2023-05-16T08:55:55.089Z,1.25
2023-05-16T09:00:58.582Z,1.27
2023-05-16T09:06:01.863Z,1.15
2023-05-16T09:11:05.223Z,1.30
2023-05-16T09:16:21.049Z,1.30
2023-05-16T09:21:29.203Z,1.15
2023-05-16T09:26:37.002Z,1.27
2023-05-16T09:31:41.018Z,1.00
2023-05-16T09:36:44.332Z,1.65
2023-05-16T09:41:52.305Z,1.30
2023-05-16T09:46:56.169Z,1.00
2023-05-16T09:52:05.095Z,1.20
2023-05-16T09:57:08.254Z,1.35
2023-05-16T10:02:13.352Z,1.33
2023-05-16T10:12:24.748Z,1.05
2023-05-16T10:17:32.573Z,1.20
2023-05-16T10:22:36.587Z,1.20
2023-05-16T10:27:40.859Z,1.10
2023-05-16T10:32:44.731Z,1.40
2023-05-16T10:37:49.415Z,1.60
2023-05-16T10:43:04.236Z,1.63
2023-05-16T10:48:10.151Z,1.17
2023-05-16T10:53:20.417Z,1.20
2023-05-16T10:58:39.413Z,1.58
2023-05-16T11:04:11.985Z,1.00
2023-05-16T11:09:20.124Z,1.00
2023-05-16T11:14:34.770Z,1.38
2023-05-16T11:19:43.642Z,0.80
2023-05-16T11:25:11.053Z,0.93
2023-05-16T11:30:19.816Z,1.08
2023-05-16T11:35:22.965Z,0.90
2023-05-16T11:40:27.402Z,1.10
2023-05-16T11:45:30.739Z,1.20
2023-05-16T11:50:35.717Z,0.70
2023-05-16T11:55:42.548Z,0.95
2023-05-16T12:00:50.432Z,0.70
2023-05-16T12:05:54.970Z,0.60
2023-05-16T12:10:58.969Z,1.25
2023-05-16T12:16:02.335Z,0.90
2023-05-16T12:21:06.435Z,0.88
2023-05-16T12:26:09.579Z,1.10
2023-05-16T12:31:31.190Z,1.45
2023-05-16T12:36:35.647Z,0.85
2023-05-16T12:41:42.824Z,0.90
2023-05-16T12:46:49.037Z,0.60
2023-05-16T12:51:54.308Z,0.68
2023-05-16T12:56:57.737Z,1.48
2023-05-16T13:02:00.916Z,2.70
2023-05-16T13:07:05.099Z,1.40
2023-05-16T13:12:08.753Z,2.67
2023-05-16T13:17:12.329Z,1.27
2023-05-16T13:22:15.470Z,1.35
2023-05-16T13:27:18.531Z,0.95
2023-05-16T13:32:21.606Z,1.42
2023-05-16T13:37:24.868Z,1.20
2023-05-16T13:42:28.111Z,1.05
2023-05-16T13:47:31.486Z,1.00
2023-05-16T13:52:36.386Z,1.52
2023-05-16T13:57:40.966Z,1.35
2023-05-16T14:02:44.384Z,1.83
2023-05-16T14:07:47.742Z,3.33
2023-05-16T14:12:52.203Z,3.25
2023-05-16T14:17:55.406Z,2.47
2023-05-16T14:22:58.488Z,3.00
2023-05-16T14:28:01.540Z,2.53
2023-05-16T14:33:06.432Z,2.70
2023-05-16T14:38:10.434Z,3.60
2023-05-16T14:43:13.641Z,2.60
2023-05-16T14:48:17.516Z,2.58
2023-05-16T14:53:22.039Z,1.80
2023-05-16T14:58:25.215Z,1.70
2023-05-16T15:03:28.298Z,1.65
2023-05-16T15:08:33.068Z,1.02
2023-05-16T15:13:37.293Z,1.80
2023-05-16T15:18:40.897Z,2.10
2023-05-16T15:23:44.127Z,2.42
2023-05-16T15:28:47.239Z,2.08
2023-05-16T15:33:51.037Z,1.90
2023-05-16T15:38:54.397Z,1.35
2023-05-16T15:43:57.458Z,1.85
2023-05-16T15:49:01.174Z,1.77
2023-05-16T15:54:04.716Z,1.83
2023-05-16T15:59:07.859Z,1.70
2023-05-16T16:04:11.002Z,1.60
2023-05-16T16:09:16.158Z,1.75
2023-05-16T16:14:19.221Z,1.58
2023-05-16T16:19:22.435Z,2.00
2023-05-16T16:24:25.819Z,2.40
2023-05-16T16:29:29.434Z,2.63
2023-05-16T16:34:32.545Z,3.03
2023-05-16T16:39:35.954Z,2.33
2023-05-16T16:44:39.021Z,2.92
2023-05-16T16:49:42.269Z,2.03
2023-05-16T16:54:45.372Z,2.13
2023-05-16T16:59:49.407Z,1.85
2023-05-16T17:04:52.497Z,1.85
2023-05-16T17:09:56.645Z,2.42
2023-05-16T17:14:59.673Z,2.13
2023-05-16T17:20:06.945Z,1.95
2023-05-16T17:25:10.526Z,2.20
2023-05-16T17:30:14.424Z,1.83
2023-05-16T17:35:20.600Z,2.13
2023-05-16T17:40:23.798Z,2.35
2023-05-16T17:45:27.414Z,2.67
2023-05-16T17:50:30.833Z,2.63
2023-05-16T17:55:34.797Z,3.05
2023-05-16T18:00:40.076Z,2.45
2023-05-16T18:05:43.648Z,2.60
2023-05-16T18:10:52.233Z,3.00
2023-05-16T18:15:56.076Z,2.92
2023-05-16T18:20:59.108Z,3.50
2023-05-16T18:26:02.297Z,3.00
2023-05-16T18:31:05.829Z,2.70
2023-05-16T18:36:09.062Z,3.13
2023-05-16T18:41:12.206Z,2.90
2023-05-16T18:46:15.302Z,2.60
2023-05-16T18:51:18.510Z,2.78
2023-05-16T18:56:22.834Z,3.20
2023-05-16T19:01:26.091Z,3.08
2023-05-16T19:06:29.526Z,2.97
2023-05-16T19:11:32.973Z,3.03
2023-05-16T19:16:36.107Z,3.03
2023-05-16T19:21:39.467Z,3.42
2023-05-16T19:26:42.659Z,2.95
2023-05-16T19:31:45.773Z,3.78
2023-05-16T19:36:48.841Z,5.13
2023-05-16T19:41:52.470Z,4.97
2023-05-16T19:46:55.881Z,4.10
2023-05-16T19:51:59.072Z,4.70
2023-05-16T19:57:02.181Z,4.60
2023-05-16T20:02:05.276Z,3.33
2023-05-16T20:07:08.405Z,3.70
2023-05-16T20:12:13.038Z,4.13
2023-05-16T20:17:16.251Z,3.65
2023-05-16T20:22:22.695Z,3.65
2023-05-16T20:27:25.895Z,3.75
2023-05-16T20:32:29.115Z,3.38
2023-05-16T20:37:32.249Z,3.33
2023-05-16T20:42:35.635Z,3.60
2023-05-16T20:47:38.953Z,3.75
2023-05-16T20:52:42.093Z,3.50
2023-05-16T20:57:45.211Z,4.25
2023-05-16T21:02:48.374Z,4.40
2023-05-16T21:07:51.636Z,3.95
2023-05-16T21:12:54.653Z,4.13
2023-05-16T21:17:58.084Z,3.83
2023-05-16T21:23:04.030Z,3.55
2023-05-16T21:33:12.700Z,3.58
2023-05-16T21:38:16.025Z,4.45
2023-05-16T21:43:19.148Z,4.03
2023-05-16T21:48:22.302Z,3.78
2023-05-16T21:53:26.442Z,3.88
2023-05-16T21:58:29.616Z,4.47
2023-05-16T22:03:32.797Z,4.43
2023-05-16T22:08:36.057Z,3.65
2023-05-16T22:13:39.120Z,4.15
2023-05-16T22:18:45.193Z,3.97
2023-05-16T22:23:48.333Z,3.78
2023-05-16T22:28:51.393Z,4.22
2023-05-16T22:33:54.630Z,3.85
2023-05-16T22:38:57.667Z,4.47
2023-05-16T22:44:00.705Z,4.47
2023-05-16T22:49:03.924Z,4.63
2023-05-16T22:54:07.190Z,4.68
2023-05-16T22:59:10.295Z,5.13
2023-05-16T23:04:13.578Z,4.95
2023-05-16T23:09:16.824Z,5.20
2023-05-16T23:14:19.792Z,5.90
2023-05-16T23:19:22.982Z,5.75
2023-05-16T23:24:26.247Z,6.40
2023-05-16T23:29:29.288Z,6.32
2023-05-16T23:34:32.416Z,7.82
2023-05-16T23:39:35.653Z,6.97
2023-05-16T23:44:42.059Z,9.52
2023-05-16T23:49:45.098Z,10.95
2023-05-16T23:54:48.203Z,9.25
2023-05-16T23:59:51.476Z,7.63
